Time;durP1;ratioP1;P1;durP2;ratioP2;P2;SDS_P1;SDS_P2;PMS_P1;PMS_P2;Temp;Humidity;BMP_temperature;BMP_pressure;BME280_temperature;BME280_humidity;BME280_pressure;Samples;Min_cycle;Max_cycle;Signal;HPM_P1;HPM_P2
2024/04/12 00:01:46;;;;;;;7.40;4.65;;;;;;;14.88;43.65;96004.38;5448866;26;20005;-74
2024/04/12 00:04:16;;;;;;;11.73;4.88;;;;;;;14.89;43.87;96007.94;5450065;26;20075;-74
2024/04/12 00:06:42;;;;;;;9.18;4.63;;;;;;;14.83;44.10;96006.91;5450107;26;20097;-75
2024/04/12 00:09:17;;;;;;;8.05;4.80;;;;;;;14.74;44.18;96006.78;5448651;26;20430;-74
2024/04/12 00:11:45;;;;;;;7.63;5.05;;;;;;;14.74;44.19;96010.34;5447934;26;20009;-75
2024/04/12 00:14:13;;;;;;;6.90;4.50;;;;;;;14.72;44.15;96014.75;5449094;26;20009;-74
2024/04/12 00:16:38;;;;;;;8.40;4.78;;;;;;;14.71;44.29;96013.19;5447338;26;20006;-74
2024/04/12 00:19:12;;;;;;;13.50;5.97;;;;;;;14.67;44.58;96004.97;5450426;26;19997;-74
2024/04/12 00:21:38;;;;;;;10.00;5.40;;;;;;;14.64;44.56;96014.16;5447614;26;20021;-74
2024/04/12 00:24:06;;;;;;;10.05;5.38;;;;;;;14.59;45.10;96007.19;5418134;26;20333;-74
2024/04/12 00:26:31;;;;;;;10.48;5.28;;;;;;;14.55;45.30;96006.50;5447777;26;20009;-74
2024/04/12 00:28:59;;;;;;;13.52;5.47;;;;;;;14.50;44.99;96004.25;5417986;26;20325;-73
2024/04/12 00:31:26;;;;;;;8.82;5.05;;;;;;;14.49;45.07;96008.22;5448194;26;19995;-74
2024/04/12 00:33:55;;;;;;;7.57;5.45;;;;;;;14.45;45.00;96013.06;5447266;26;20391;-74
2024/04/12 00:36:24;;;;;;;9.93;4.68;;;;;;;14.42;45.25;96013.94;5448329;26;20512;-73
2024/04/12 00:38:50;;;;;;;10.55;5.75;;;;;;;14.39;45.19;96023.09;5447697;26;20052;-74
2024/04/12 00:41:18;;;;;;;8.30;5.43;;;;;;;14.37;45.37;96017.22;5417956;26;19999;-74
2024/04/12 00:43:52;;;;;;;8.70;4.65;;;;;;;14.35;45.41;96022.44;5447613;26;20006;-75
2024/04/12 00:46:28;;;;;;;11.90;5.35;;;;;;;14.34;45.08;96023.66;5447593;26;19995;-74
2024/04/12 00:48:57;;;;;;;8.63;4.68;;;;;;;14.26;45.41;96011.97;5448253;26;20056;-74
2024/04/12 00:51:27;;;;;;;8.77;5.03;;;;;;;14.29;45.48;96022.19;5416741;26;20031;-74
2024/04/12 00:53:56;;;;;;;6.75;4.40;;;;;;;14.24;45.60;96014.41;5447746;26;20167;-74
2024/04/12 00:56:23;;;;;;;7.47;4.80;;;;;;;14.22;45.54;96018.81;5416525;26;19995;-73
2024/04/12 00:58:48;;;;;;;8.27;4.53;;;;;;;14.20;45.22;96019.25;5447619;26;20044;-75
2024/04/12 01:01:18;;;;;;;8.75;4.93;;;;;;;14.17;45.52;96024.88;5449133;26;20076;-74
2024/04/12 01:03:49;;;;;;;12.00;4.72;;;;;;;14.08;45.38;96017.97;5447425;26;20002;-74
2024/04/12 01:06:30;;;;;;;8.77;4.70;;;;;;;14.07;45.77;96015.63;5448154;26;20063;-74
2024/04/12 01:09:10;;;;;;;17.05;5.63;;;;;;;14.08;45.66;96011.66;5418064;26;20428;-74
2024/04/12 01:11:36;;;;;;;12.93;5.57;;;;;;;14.05;45.56;96012.53;5448018;26;20375;-74
2024/04/12 01:14:02;;;;;;;14.25;5.68;;;;;;;14.04;45.55;96011.75;5445777;26;20003;-74
2024/04/12 01:16:27;;;;;;;9.48;4.70;;;;;;;13.99;45.27;96009.53;5448644;26;20017;-74
2024/04/12 01:18:55;;;;;;;12.00;5.18;;;;;;;13.97;45.60;96013.91;5449640;26;20010;-75
2024/04/12 01:21:24;;;;;;;8.63;5.07;;;;;;;13.97;45.42;96008.38;5417259;26;20002;-74
2024/04/12 01:23:53;;;;;;;10.20;4.95;;;;;;;13.89;45.72;96005.03;5448500;26;20007;-74
2024/04/12 01:26:23;;;;;;;9.82;4.55;;;;;;;13.90;45.98;96005.81;5446975;26;19999;-73
2024/04/12 01:28:50;;;;;;;9.93;5.05;;;;;;;13.91;45.87;96002.59;5447718;26;19995;-74
2024/04/12 01:31:17;;;;;;;9.43;4.57;;;;;;;13.86;45.66;95999.59;5447564;26;20323;-74
2024/04/12 01:33:49;;;;;;;10.52;4.65;;;;;;;13.89;45.88;96013.31;5417365;26;20023;-74
2024/04/12 01:36:17;;;;;;;12.83;4.90;;;;;;;13.90;45.98;96011.34;5448120;26;19999;-75
2024/04/12 01:38:53;;;;;;;11.50;5.50;;;;;;;13.87;46.19;96009.41;5416649;26;20067;-75
2024/04/12 01:41:31;;;;;;;10.10;4.97;;;;;;;13.87;46.45;96012.19;5418358;26;19994;-75
2024/04/12 01:44:04;;;;;;;8.68;4.55;;;;;;;13.84;46.70;96018.59;5446948;26;20068;-73
2024/04/12 01:46:31;;;;;;;8.63;4.80;;;;;;;13.79;46.82;96017.91;5447278;26;20398;-74
2024/04/12 01:49:00;;;;;;;8.18;4.55;;;;;;;13.82;47.25;96019.03;5449239;26;19999;-74
2024/04/12 01:51:25;;;;;;;10.43;5.07;;;;;;;13.78;47.04;96015.56;5445618;26;19995;-74
2024/04/12 01:53:54;;;;;;;9.35;4.50;;;;;;;13.76;47.39;96018.78;5417757;26;20027;-74
2024/04/12 01:56:22;;;;;;;7.90;4.18;;;;;;;13.74;47.22;96025.91;5445976;26;20056;-75
2024/04/12 01:58:48;;;;;;;6.15;4.65;;;;;;;13.68;47.21;96011.06;5449230;26;20010;-75
2024/04/12 02:01:16;;;;;;;12.30;4.70;;;;;;;13.73;47.22;96024.38;5446366;26;20021;-74
2024/04/12 02:03:42;;;;;;;7.20;4.97;;;;;;;13.68;47.45;96022.91;5447267;26;20011;-73
2024/04/12 02:06:08;;;;;;;9.90;4.18;;;;;;;13.69;47.44;96026.44;5448730;26;19995;-74
2024/04/12 02:08:35;;;;;;;13.27;4.70;;;;;;;13.62;47.89;96024.63;5445203;26;20013;-74
2024/04/12 02:11:05;;;;;;;11.63;5.63;;;;;;;13.63;47.79;96023.41;5446657;26;20018;-75
2024/04/12 02:13:35;;;;;;;9.68;5.43;;;;;;;13.58;47.99;96025.91;5415941;26;20010;-74
2024/04/12 02:16:02;;;;;;;13.20;6.00;;;;;;;13.52;48.10;96007.06;5446775;26;20006;-76
2024/04/12 02:18:32;;;;;;;13.60;5.93;;;;;;;13.52;48.11;96014.59;5444324;26;19998;-75
2024/04/12 02:21:04;;;;;;;14.32;5.55;;;;;;;13.49;48.23;96018.22;5447826;26;20720;-75
2024/04/12 02:23:30;;;;;;;12.38;5.97;;;;;;;13.44;48.29;96008.47;5445398;26;20066;-75
2024/04/12 02:25:58;;;;;;;12.88;6.72;;;;;;;13.42;48.17;96018.38;5415186;26;20014;-75
2024/04/12 02:28:26;;;;;;;17.20;6.72;;;;;;;13.44;48.16;96016.75;5445951;26;20421;-75
2024/04/12 02:30:57;;;;;;;14.25;6.18;;;;;;;13.39;48.21;96017.25;5445879;26;19999;-74
2024/04/12 02:33:25;;;;;;;10.35;6.20;;;;;;;13.39;48.47;96017.25;5417035;26;20423;-75
2024/04/12 02:36:11;;;;;;;13.15;5.47;;;;;;;13.40;48.41;96021.56;5444363;26;20465;-75
2024/04/12 02:38:37;;;;;;;9.70;6.00;;;;;;;13.35;48.25;96018.53;5445277;26;19998;-75
2024/04/12 02:41:03;;;;;;;8.98;5.68;;;;;;;13.35;48.36;96026.81;5447124;26;19995;-75
2024/04/12 02:43:29;;;;;;;9.60;5.63;;;;;;;13.28;48.69;96023.00;5445690;26;20005;-75
2024/04/12 02:45:57;;;;;;;10.52;5.45;;;;;;;13.28;48.60;96025.00;5415024;26;20010;-75
2024/04/12 02:48:22;;;;;;;10.18;6.20;;;;;;;13.26;48.87;96027.41;5443462;26;19995;-74
2024/04/12 02:50:55;;;;;;;10.38;5.35;;;;;;;13.24;48.95;96032.56;5445543;26;20461;-75
2024/04/12 02:53:24;;;;;;;9.13;5.60;;;;;;;13.18;49.29;96023.22;5444338;26;20418;-74
2024/04/12 02:56:02;;;;;;;10.18;5.70;;;;;;;13.20;49.15;96026.34;5445308;26;20002;-74
2024/04/12 02:58:38;;;;;;;15.30;5.57;;;;;;;13.14;49.31;96019.78;5446899;26;20286;-74
2024/04/12 03:01:11;;;;;;;11.10;5.47;;;;;;;13.12;49.49;96035.97;5444253;26;20044;-76
2024/04/12 03:03:41;;;;;;;6.85;4.95;;;;;;;13.10;49.53;96021.81;5445039;26;20025;-76
2024/04/12 03:06:09;;;;;;;7.50;5.20;;;;;;;13.09;49.25;96037.59;5414434;26;20019;-74
2024/04/12 03:08:36;;;;;;;12.57;5.38;;;;;;;13.02;49.59;96023.97;5444927;26;20422;-75
2024/04/12 03:11:21;;;;;;;6.65;5.45;;;;;;;13.02;49.50;96010.16;5413643;26;20013;-73
2024/04/12 03:13:51;;;;;;;8.95;5.28;;;;;;;13.00;49.85;96021.59;5443863;26;20007;-74
2024/04/12 03:16:18;;;;;;;8.60;5.80;;;;;;;13.01;49.92;96030.66;5445541;26;20074;-75
2024/04/12 03:18:54;;;;;;;7.82;5.03;;;;;;;12.96;49.83;96025.63;5443232;26;20013;-73
2024/04/12 03:21:26;;;;;;;9.52;5.40;;;;;;;13.01;49.92;96028.69;5445332;26;19999;-73
2024/04/12 03:23:52;;;;;;;11.90;5.60;;;;;;;12.97;49.89;96028.00;5415293;26;19995;-74
2024/04/12 03:26:21;;;;;;;10.95;5.80;;;;;;;12.93;50.11;96027.28;5444469;26;20333;-75
2024/04/12 03:28:49;;;;;;;9.38;5.68;;;;;;;12.86;49.97;96024.69;5444942;26;19998;-74
2024/04/12 03:31:14;;;;;;;10.30;5.88;;;;;;;12.92;49.68;96030.47;5444813;26;19998;-74
2024/04/12 03:33:44;;;;;;;9.52;6.65;;;;;;;12.96;49.87;96047.72;5444715;26;19999;-74
2024/04/12 03:41:50;;;;;;;12.20;6.35;;;;;;;12.87;50.21;96050.28;5447796;26;20076;-74
2024/04/12 03:44:18;;;;;;;12.30;6.53;;;;;;;12.85;50.22;96055.47;5445811;26;19995;-74
2024/04/12 03:46:50;;;;;;;9.13;6.22;;;;;;;12.83;50.28;96047.59;5447876;26;20227;-74
2024/04/12 03:49:20;;;;;;;10.32;6.32;;;;;;;12.81;50.32;96052.75;5447685;26;20014;-75
2024/04/12 03:51:47;;;;;;;14.48;7.03;;;;;;;12.74;50.80;96063.94;5447229;26;20516;-75
2024/04/12 03:54:21;;;;;;;12.23;6.38;;;;;;;12.73;50.46;96060.41;5415703;26;20112;-74
2024/04/12 03:56:49;;;;;;;10.13;6.10;;;;;;;12.70;50.98;96054.94;5445963;26;20453;-74
2024/04/12 03:59:19;;;;;;;12.27;6.40;;;;;;;12.71;50.59;96059.25;5447564;26;19995;-75
2024/04/12 04:01:48;;;;;;;12.15;6.10;;;;;;;12.74;50.93;96075.75;5415872;26;20031;-74
2024/04/12 04:04:19;;;;;;;12.65;5.90;;;;;;;12.74;50.68;96072.22;5449582;26;20003;-75
2024/04/12 04:06:46;;;;;;;12.80;6.55;;;;;;;12.70;50.98;96071.50;5447322;26;19994;-75
2024/04/12 04:09:20;;;;;;;12.60;6.15;;;;;;;12.72;50.96;96082.88;5448826;26;20096;-75
2024/04/12 04:11:52;;;;;;;15.93;6.57;;;;;;;12.70;51.04;96082.53;5446772;26;20425;-74
2024/04/12 04:14:19;;;;;;;14.20;6.10;;;;;;;12.67;50.97;96089.69;5447179;26;20006;-73
2024/04/12 04:16:49;;;;;;;17.88;6.78;;;;;;;12.66;51.07;96090.88;5449044;26;20327;-74
2024/04/12 04:19:17;;;;;;;17.17;6.75;;;;;;;12.69;51.23;96092.03;5447915;26;20124;-74
2024/04/12 04:21:43;;;;;;;16.10;7.50;;;;;;;12.67;51.20;96083.38;5449647;26;20390;-74
2024/04/12 04:24:08;;;;;;;19.98;7.72;;;;;;;12.71;50.91;96095.13;5447776;26;20006;-75
2024/04/12 04:26:38;;;;;;;15.82;7.00;;;;;;;12.68;51.15;96079.44;5447581;26;20319;-74
2024/04/12 04:29:09;;;;;;;17.13;7.22;;;;;;;12.74;51.18;96094.28;5447058;26;20005;-75
2024/04/12 04:31:52;;;;;;;10.13;6.38;;;;;;;12.72;51.17;96091.94;5446622;26;19995;-75
2024/04/12 04:34:19;;;;;;;12.65;7.25;;;;;;;12.76;51.63;96092.66;5447816;26;20010;-75
2024/04/12 04:36:49;;;;;;;14.07;7.47;;;;;;;12.72;51.33;96099.44;5447132;26;19995;-74
2024/04/12 04:39:17;;;;;;;22.65;7.43;;;;;;;12.81;51.30;96105.19;5449455;26;20002;-75
2024/04/12 04:41:46;;;;;;;26.67;8.95;;;;;;;12.82;51.77;96103.22;5447154;26;20479;-75
2024/04/12 04:44:15;;;;;;;17.55;7.05;;;;;;;12.86;51.52;96101.94;5416548;26;20436;-73
2024/04/12 04:46:47;;;;;;;20.02;7.68;;;;;;;12.85;51.71;96089.34;5446376;26;19999;-74
2024/04/12 04:49:13;;;;;;;19.58;7.07;;;;;;;12.89;51.69;96086.50;5446896;26;20003;-73
2024/04/12 04:51:39;;;;;;;16.92;7.72;;;;;;;12.93;51.52;96090.75;5448459;26;19995;-73
2024/04/12 04:54:16;;;;;;;22.67;7.97;;;;;;;12.94;51.44;96092.31;5447104;26;20439;-74
2024/04/12 04:56:45;;;;;;;26.45;9.27;;;;;;;12.98;51.59;96098.56;5447060;26;20006;-74
2024/04/12 04:59:16;;;;;;;18.60;8.77;;;;;;;13.01;51.42;96096.91;5446056;26;19998;-73
2024/04/12 05:01:48;;;;;;;22.55;8.95;;;;;;;13.08;51.68;96091.28;5448087;26;19999;-74
2024/04/12 05:04:21;;;;;;;25.67;8.57;;;;;;;13.10;51.82;96099.88;5446971;26;20098;-74
2024/04/12 05:06:52;;;;;;;37.07;9.97;;;;;;;13.16;51.67;96100.16;5415345;26;19995;-74
2024/04/12 05:09:18;;;;;;;45.00;10.73;;;;;;;13.24;51.72;96109.88;5447835;26;20236;-74
2024/04/12 05:11:49;;;;;;;43.05;10.48;;;;;;;13.26;51.54;96108.28;5445090;26;19998;-74
2024/04/12 05:14:44;;;;;;;29.50;10.27;;;;;;;13.37;51.57;96110.81;5447110;26;19995;-75
2024/04/12 05:17:15;;;;;;;19.42;8.65;;;;;;;13.46;50.78;96118.50;5446648;26;20033;-74
2024/04/12 05:19:40;;;;;;;23.50;8.68;;;;;;;13.50;50.22;96119.22;5445230;26;19995;-74
2024/04/12 05:22:10;;;;;;;25.08;8.75;;;;;;;13.57;49.95;96113.53;5417345;26;19995;-74
2024/04/12 05:24:35;;;;;;;20.35;9.88;;;;;;;13.64;49.71;96110.59;5445121;26;20282;-73
2024/04/12 05:27:04;;;;;;;23.25;10.10;;;;;;;13.75;49.02;96110.38;5416953;26;20006;-75
2024/04/12 05:29:30;;;;;;;15.45;10.50;;;;;;;13.72;48.89;96114.00;5445165;26;20003;-74
2024/04/12 05:31:57;;;;;;;21.20;10.18;;;;;;;13.81;48.60;96108.66;5446205;26;20401;-73
2024/04/12 05:34:23;;;;;;;24.17;9.80;;;;;;;13.86;48.54;96110.91;5446220;26;20029;-73
2024/04/12 05:36:48;;;;;;;21.05;9.98;;;;;;;13.90;48.01;96110.84;5445043;26;20018;-73
2024/04/12 05:39:19;;;;;;;24.60;10.20;;;;;;;13.96;47.78;96109.91;5446424;26;20079;-73
2024/04/12 05:41:45;;;;;;;21.35;9.23;;;;;;;14.02;47.75;96116.47;5444508;26;20005;-74
2024/04/12 05:44:14;;;;;;;20.35;9.68;;;;;;;14.08;47.60;96117.50;5448519;26;19999;-74
2024/04/12 05:46:40;;;;;;;20.05;9.20;;;;;;;14.24;47.10;96115.97;5444458;26;19995;-74
2024/04/12 05:49:12;;;;;;;18.00;7.82;;;;;;;14.21;47.00;96111.28;5447749;26;20068;-75
2024/04/12 05:51:39;;;;;;;20.25;7.80;;;;;;;14.26;46.71;96117.06;5416778;26;19995;-74
2024/04/12 05:54:10;;;;;;;10.25;7.18;;;;;;;14.27;46.66;96121.38;5444854;26;20439;-73
2024/04/12 05:56:40;;;;;;;16.65;6.88;;;;;;;14.31;46.45;96121.31;5445627;26;20023;-73
2024/04/12 05:59:14;;;;;;;15.27;7.75;;;;;;;14.40;46.10;96118.72;5443468;26;20006;-73
2024/04/12 06:01:46;;;;;;;13.18;7.10;;;;;;;14.43;45.94;96117.84;5417438;26;20081;-73
2024/04/12 06:04:19;;;;;;;15.07;7.17;;;;;;;14.52;45.84;96112.50;5446690;26;20009;-73
2024/04/12 06:06:47;;;;;;;11.98;6.68;;;;;;;14.56;45.79;96112.41;5415824;26;20244;-73
2024/04/12 06:09:20;;;;;;;13.75;6.43;;;;;;;14.63;45.76;96115.00;5446073;26;20089;-73
2024/04/12 06:11:54;;;;;;;15.13;7.07;;;;;;;14.71;45.76;96121.13;5416006;26;20379;-73
2024/04/12 06:14:21;;;;;;;15.32;6.65;;;;;;;14.76;45.55;96112.31;5417119;26;20002;-74
2024/04/12 06:16:56;;;;;;;15.73;6.63;;;;;;;14.79;45.56;96114.19;5444247;26;20000;-74
2024/04/12 06:19:24;;;;;;;17.02;7.65;;;;;;;14.86;46.09;96117.56;5445989;26;20090;-76
2024/04/12 06:21:50;;;;;;;12.18;6.47;;;;;;;14.94;45.84;96122.91;5415444;26;20006;-76
2024/04/12 06:24:17;;;;;;;22.63;7.15;;;;;;;15.04;45.43;96122.59;5444700;26;20002;-75
2024/04/12 06:26:47;;;;;;;14.93;5.30;;;;;;;15.12;45.26;96121.19;5445296;26;20002;-77
2024/04/12 06:29:16;;;;;;;12.95;5.50;;;;;;;15.19;45.30;96113.91;5444428;26;20071;-76
2024/04/12 06:31:45;;;;;;;12.43;5.65;;;;;;;15.29;44.90;96112.81;5445860;26;20011;-82
2024/04/12 06:34:17;;;;;;;11.05;5.72;;;;;;;15.34;44.50;96115.06;5414714;26;20006;-73
2024/04/12 06:36:57;;;;;;;8.85;5.78;;;;;;;15.43;44.50;96119.97;5445510;26;20002;-75
2024/04/12 06:39:28;;;;;;;21.42;5.43;;;;;;;15.47;44.61;96120.63;5445366;26;20067;-75
2024/04/12 06:41:55;;;;;;;17.95;7.60;;;;;;;15.60;44.37;96104.81;5414785;26;20002;-75
2024/04/12 06:44:20;;;;;;;16.85;6.30;;;;;;;15.67;44.49;96115.69;5445855;26;20085;-75
2024/04/12 06:46:49;;;;;;;10.50;5.70;;;;;;;15.78;44.38;96112.63;5443404;26;20002;-75
2024/04/12 06:49:15;;;;;;;13.10;5.90;;;;;;;15.89;44.12;96113.06;5445733;26;20002;-75
2024/04/12 06:52:09;;;;;;;14.38;5.18;;;;;;;15.97;44.14;96117.16;5445346;26;19995;-76
2024/04/12 06:54:35;;;;;;;16.48;6.43;;;;;;;16.05;43.85;96115.69;5444139;26;20430;-75
2024/04/12 06:57:04;;;;;;;15.32;5.15;;;;;;;16.17;44.00;96112.16;5445545;26;20002;-74
2024/04/12 06:59:36;;;;;;;7.60;4.80;;;;;;;16.31;44.06;96107.38;5443076;26;20009;-76
2024/04/12 07:02:05;;;;;;;11.23;5.43;;;;;;;16.40;44.01;96115.78;5416308;26;20017;-74
2024/04/12 07:04:31;;;;;;;9.30;5.22;;;;;;;16.53;43.58;96111.00;5443756;26;19991;-74
2024/04/12 07:06:57;;;;;;;11.60;4.78;;;;;;;16.61;43.77;96117.06;5443294;26;20367;-75
2024/04/12 07:09:23;;;;;;;13.95;6.32;;;;;;;16.70;43.34;96114.41;5414207;26;20476;-75
2024/04/12 07:11:51;;;;;;;18.27;5.30;;;;;;;16.76;43.29;96103.53;5442372;26;20006;-74
2024/04/12 07:14:23;;;;;;;9.02;4.70;;;;;;;16.97;43.17;96111.91;5444877;26;19999;-76
2024/04/12 07:16:53;;;;;;;11.60;5.00;;;;;;;17.16;42.89;96112.03;5445114;26;20006;-74
2024/04/12 07:19:23;;;;;;;10.13;5.05;;;;;;;17.31;42.14;96115.81;5445083;26;20003;-75
2024/04/12 07:21:54;;;;;;;9.27;4.95;;;;;;;17.36;42.50;96106.91;5445028;26;20106;-75
2024/04/12 07:24:22;;;;;;;9.10;4.95;;;;;;;17.51;42.13;96109.94;5415673;26;20009;-75
2024/04/12 07:26:48;;;;;;;8.95;4.50;;;;;;;17.60;41.94;96109.22;5445463;26;19995;-75
2024/04/12 07:29:14;;;;;;;17.55;5.35;;;;;;;17.76;41.57;96109.78;5445064;26;20002;-75
2024/04/12 07:31:42;;;;;;;9.07;5.00;;;;;;;17.87;41.40;96109.38;5414181;26;19998;-74
2024/04/12 07:34:07;;;;;;;7.63;4.70;;;;;;;17.97;41.39;96104.66;5443061;26;20439;-74
2024/04/12 07:36:34;;;;;;;11.23;5.40;;;;;;;18.05;41.36;96103.91;5414976;26;20581;-75
2024/04/12 07:39:08;;;;;;;9.48;5.00;;;;;;;18.17;41.15;96105.03;5442821;26;20360;-75
2024/04/12 07:41:38;;;;;;;10.70;5.40;;;;;;;18.28;40.60;96096.25;5445670;26;20523;-75
2024/04/12 07:44:12;;;;;;;7.47;5.60;;;;;;;18.42;40.48;96094.91;5413868;26;20315;-74
2024/04/12 07:46:38;;;;;;;8.93;4.70;;;;;;;18.59;40.57;96085.03;5442749;26;20449;-75
2024/04/12 07:49:07;;;;;;;13.65;5.05;;;;;;;18.75;40.61;96089.56;5444294;26;20034;-75
2024/04/12 07:51:39;;;;;;;8.93;5.20;;;;;;;18.80;40.23;96080.56;5442404;26;19995;-75
2024/04/12 07:54:11;;;;;;;6.57;4.78;;;;;;;19.01;39.22;96085.22;5443152;26;20007;-75
2024/04/12 07:56:43;;;;;;;8.20;4.80;;;;;;;19.12;39.16;96084.78;5414396;26;20006;-75
2024/04/12 07:59:17;;;;;;;6.28;4.72;;;;;;;19.30;38.67;96087.53;5443592;26;19991;-74
2024/04/12 08:01:46;;;;;;;7.63;4.80;;;;;;;19.48;38.73;96094.31;5443458;26;19995;-75
2024/04/12 08:04:22;;;;;;;8.95;5.88;;;;;;;19.61;37.79;96081.00;5442098;26;20010;-75
2024/04/12 08:09:40;;;;;;;8.07;4.18;;;;;;;19.89;36.68;96079.66;5442302;26;19995;-75
2024/04/12 08:12:17;;;;;;;10.95;5.45;;;;;;;20.06;35.82;96074.47;5443743;26;20013;-75
2024/04/12 08:14:51;;;;;;;11.57;5.68;;;;;;;20.14;35.54;96080.50;5416162;26;19999;-76
2024/04/12 08:17:23;;;;;;;5.47;4.18;;;;;;;20.24;35.63;96075.63;5442328;26;20426;-75
2024/04/12 08:20:12;;;;;;;11.63;4.28;;;;;;;20.39;35.13;96082.84;5443689;26;20031;-76
2024/04/12 08:22:38;;;;;;;8.27;4.13;;;;;;;20.53;34.92;96072.22;5445014;26;20406;-76
2024/04/12 08:25:06;;;;;;;10.13;4.05;;;;;;;20.72;34.79;96072.91;5446422;26;20064;-75
2024/04/12 08:27:34;;;;;;;7.28;4.90;;;;;;;20.91;34.84;96077.09;5447162;26;19991;-75
2024/04/12 08:30:00;;;;;;;5.75;3.90;;;;;;;21.01;34.57;96067.38;5445600;26;20005;-74
2024/04/12 08:32:31;;;;;;;10.15;5.20;;;;;;;21.26;33.96;96076.47;5447578;26;19995;-76
2024/04/12 08:35:06;;;;;;;7.30;4.38;;;;;;;21.45;33.49;96072.31;5417458;26;20093;-75
2024/04/12 08:37:36;;;;;;;9.98;4.65;;;;;;;21.56;33.41;96069.69;5447356;26;20018;-75
2024/04/12 08:40:08;;;;;;;7.53;5.05;;;;;;;21.71;33.29;96070.47;5417786;26;20003;-75
2024/04/12 08:42:34;;;;;;;10.02;4.82;;;;;;;21.88;32.97;96070.72;5446241;26;20006;-75
2024/04/12 08:45:23;;;;;;;9.77;4.97;;;;;;;22.11;32.46;96073.91;5417108;26;19994;-75
2024/04/12 08:48:04;;;;;;;7.53;4.28;;;;;;;22.33;32.24;96067.88;5445126;26;19994;-76
2024/04/12 08:50:34;;;;;;;;;;;;;;;22.54;32.01;96072.25;5448067;26;19995;-76
2024/04/12 08:53:04;;;;;;;5.95;3.90;;;;;;;22.69;31.41;96058.94;5416742;26;19925;-76
2024/04/12 08:55:30;;;;;;;11.65;5.63;;;;;;;22.94;31.25;96060.31;5446169;26;20177;-75
2024/04/12 08:58:00;;;;;;;7.80;5.07;;;;;;;23.24;31.12;96058.06;5446289;26;20489;-74
2024/04/12 09:00:33;;;;;;;11.35;5.38;;;;;;;23.52;30.07;96051.97;5445689;26;20082;-76
2024/04/12 09:03:04;;;;;;;8.23;4.82;;;;;;;23.77;29.68;96050.44;5446956;26;20466;-75
2024/04/12 09:05:32;;;;;;;11.05;5.15;;;;;;;24.03;29.71;96051.16;5415998;26;20084;-76
2024/04/12 09:07:58;;;;;;;9.02;4.72;;;;;;;24.25;29.11;96044.91;5446478;26;20454;-77
2024/04/12 09:10:34;;;;;;;15.90;5.90;;;;;;;24.42;29.14;96049.88;5446129;26;20079;-76
2024/04/12 09:13:09;;;;;;;9.95;5.82;;;;;;;24.66;28.93;96044.66;5445616;26;20433;-75
2024/04/12 09:15:43;;;;;;;6.90;4.03;;;;;;;24.88;28.39;96044.75;5446655;26;19999;-75
2024/04/12 09:18:15;;;;;;;12.32;4.57;;;;;;;25.11;28.52;96037.19;5445577;26;19998;-75
2024/04/12 09:20:44;;;;;;;7.53;4.15;;;;;;;25.38;27.92;96046.19;5419055;26;20420;-76
2024/04/12 09:23:20;;;;;;;7.18;4.13;;;;;;;25.68;27.43;96038.03;5447886;26;20425;-75
2024/04/12 09:25:55;;;;;;;10.40;4.15;;;;;;;26.01;27.04;96040.13;5446059;26;20072;-76
2024/04/12 09:28:30;;;;;;;8.40;4.88;;;;;;;26.33;26.82;96031.38;5446864;26;20321;-75
2024/04/12 09:33:56;;;;;;;10.60;5.38;;;;;;;26.90;26.10;96030.72;5445982;26;20009;-75
2024/04/12 09:36:38;;;;;;;8.23;5.47;;;;;;;27.19;25.28;96020.09;5446153;26;20003;-76
2024/04/12 09:39:14;;;;;;;9.27;4.05;;;;;;;27.41;25.19;96021.97;5445369;26;20023;-75
2024/04/12 09:41:53;;;;;;;9.55;4.53;;;;;;;27.67;24.79;96024.38;5446760;26;20026;-76
2024/04/12 09:44:26;;;;;;;9.05;5.75;;;;;;;27.95;24.35;96015.72;5444719;26;19999;-75
2024/04/12 10:37:23;;;;;;;10.50;4.15;;;;;;;31.56;19.71;95962.06;5446725;26;20014;-77
2024/04/12 10:39:51;;;;;;;6.25;3.38;;;;;;;31.57;17.76;95963.56;5444449;26;20010;-77
2024/04/12 10:42:20;;;;;;;9.98;3.42;;;;;;;31.71;18.04;95956.50;5416345;26;20015;-76
2024/04/12 10:44:56;;;;;;;5.75;3.15;;;;;;;31.86;17.40;95968.03;5444076;26;20478;-76
2024/04/12 10:47:22;;;;;;;9.57;4.57;;;;;;;32.16;17.62;95956.13;5447456;26;19999;-76
2024/04/12 10:49:49;;;;;;;9.25;4.60;;;;;;;32.39;17.50;95964.88;5446113;26;19995;-76
2024/04/12 10:52:15;;;;;;;12.48;3.83;;;;;;;32.83;17.63;95956.38;5446901;26;19999;-75
2024/04/12 10:54:44;;;;;;;6.75;3.22;;;;;;;33.43;16.98;95955.13;5445204;26;20007;-76
2024/04/12 10:57:12;;;;;;;6.25;3.47;;;;;;;33.91;16.16;95951.78;5444189;26;20039;-75
2024/04/12 10:59:42;;;;;;;6.93;3.60;;;;;;;34.55;15.95;95959.94;5447256;26;19998;-76
2024/04/12 11:02:10;;;;;;;5.93;3.70;;;;;;;35.15;15.22;95948.13;5443780;26;20355;-75
2024/04/12 11:05:05;;;;;;;5.70;3.80;;;;;;;35.74;14.50;95944.78;5445855;26;20064;-75
2024/04/12 11:07:22;;;;;;;7.50;3.15;;;;;;;36.07;14.56;95943.41;5446175;26;20093;-75
2024/04/12 11:09:57;;;;;;;5.60;3.17;;;;;;;36.62;13.89;95933.72;5414125;26;20018;-76
2024/04/12 11:12:27;;;;;;;4.95;3.28;;;;;;;37.29;13.43;95927.00;5445255;26;19999;-75
2024/04/12 11:15:12;;;;;;;11.25;4.07;;;;;;;37.98;13.69;95938.25;5443300;26;20002;-75
2024/04/12 11:31:20;;;;;;;8.45;3.67;;;;;;;37.10;13.43;95919.03;5443729;26;20031;-76
2024/04/12 11:33:51;;;;;;;4.72;2.65;;;;;;;36.47;13.89;95908.09;5414489;26;20325;-76
2024/04/12 11:36:21;;;;;;;7.40;3.53;;;;;;;35.60;14.39;95898.53;5414426;26;19999;-75
2024/04/12 11:38:47;;;;;;;8.98;4.80;;;;;;;35.02;15.33;95904.19;5446568;26;20029;-76
2024/04/12 11:41:15;;;;;;;6.05;3.63;;;;;;;34.44;15.67;95896.78;5413261;26;20031;-75
2024/04/12 11:43:47;;;;;;;8.68;3.38;;;;;;;33.79;16.21;95897.22;5444548;26;20429;-75
2024/04/12 11:46:16;;;;;;;6.43;3.38;;;;;;;33.41;16.98;95900.78;5443660;26;20003;-76
2024/04/12 11:48:42;;;;;;;8.07;3.35;;;;;;;32.89;16.80;95882.22;5443765;26;20021;-76
2024/04/12 11:51:15;;;;;;;7.53;3.58;;;;;;;32.37;17.76;95885.00;5443339;26;19995;-76
2024/04/12 11:53:42;;;;;;;;;;;;;;;32.02;18.12;95883.63;5414572;26;20010;-75
2024/04/12 11:56:09;;;;;;;7.00;3.70;;;;;;;31.68;17.85;95883.72;5444098;26;19954;-75
2024/04/12 11:58:35;;;;;;;3.80;2.80;;;;;;;31.30;17.83;95875.63;5416270;26;20006;-75
2024/04/12 12:01:04;;;;;;;5.55;3.42;;;;;;;31.04;18.39;95873.66;5447362;26;20006;-77
2024/04/12 12:03:30;;;;;;;7.75;3.47;;;;;;;30.74;18.42;95873.28;5446331;26;20005;-76
2024/04/12 12:05:57;;;;;;;5.07;3.35;;;;;;;30.54;18.78;95875.50;5448123;26;20006;-76
2024/04/12 12:08:32;;;;;;;9.57;3.70;;;;;;;30.31;18.83;95866.69;5447642;26;19998;-76
2024/04/12 12:10:59;;;;;;;6.90;3.35;;;;;;;30.00;19.74;95873.25;5446505;26;20001;-76
2024/04/12 12:13:25;;;;;;;9.38;3.08;;;;;;;29.76;19.79;95872.09;5447856;26;20068;-76
2024/04/12 12:15:51;;;;;;;5.10;4.15;;;;;;;29.63;19.59;95860.75;5447820;26;20002;-76
2024/04/12 12:18:17;;;;;;;10.75;3.80;;;;;;;29.51;19.80;95865.84;5418311;26;20069;-75
2024/04/12 12:20:46;;;;;;;7.03;4.03;;;;;;;29.40;20.36;95851.88;5446468;26;20007;-76
2024/04/12 12:23:11;;;;;;;9.43;3.42;;;;;;;29.28;20.45;95862.63;5417319;26;19995;-75
2024/04/12 12:25:38;;;;;;;5.68;3.13;;;;;;;29.17;19.99;95850.72;5417473;26;19991;-76
2024/04/12 12:28:04;;;;;;;5.25;3.42;;;;;;;28.87;20.33;95839.59;5447815;26;19999;-75
2024/04/12 12:30:33;;;;;;;6.20;3.70;;;;;;;28.81;20.41;95842.50;5447323;26;20350;-76
2024/04/12 12:32:59;;;;;;;7.32;3.65;;;;;;;28.75;20.56;95827.66;5416740;26;19998;-76
2024/04/12 12:35:24;;;;;;;7.82;3.70;;;;;;;28.71;20.77;95830.81;5447544;26;20005;-76
2024/04/12 12:37:50;;;;;;;8.10;3.22;;;;;;;28.74;20.68;95826.91;5445869;26;19991;-77
2024/04/12 12:40:22;;;;;;;5.47;3.03;;;;;;;28.82;21.07;95827.03;5446654;26;20002;-76
2024/04/12 12:42:48;;;;;;;8.70;3.60;;;;;;;28.74;20.58;95823.31;5446820;26;20413;-76
2024/04/12 12:45:15;;;;;;;10.45;4.18;;;;;;;28.73;20.50;95828.22;5445729;26;19999;-77
2024/04/12 12:47:41;;;;;;;7.00;3.53;;;;;;;28.66;20.46;95820.31;5446331;26;19995;-76
2024/04/12 12:50:16;;;;;;;7.55;4.07;;;;;;;28.58;20.56;95816.59;5446646;26;20013;-77
2024/04/12 12:52:43;;;;;;;6.63;4.30;;;;;;;28.48;20.83;95815.47;5419095;26;20023;-76
2024/04/12 12:55:11;;;;;;;6.35;4.22;;;;;;;28.42;20.95;95809.13;5444982;26;20071;-75
2024/04/12 12:57:39;;;;;;;6.03;3.28;;;;;;;28.37;21.06;95805.06;5446489;26;20014;-75